logo
App data

Civilization IV: Warlords

Sid Meier's Civilization IV: Warlords is the first expansion pack for the award-winning game that has become an instant world-wide hit. Paying homage to some of history's greatest military leaders, the expansion delivers six unique and interesting scenarios, giving players the chance to change the course of history with the help of their...
Store | Hub | SteamDB | Site
Developer: Firaxis Games Publisher: 2K
Genre: Strategy
Languages: English, French, German, Italian, Spanish
Tags: Strategy (75), Turn-Based (40), 4X (38), Turn-Based Strategy (37), Historical (13), Multiplayer (5), Singleplayer (5)
Category: Single-player
Release date: Apr 6, 2007
Price: $4.99
Score rank: 66% Userscore: 86% Old userscore: 86% Metascore: 84%
Owners: 1,000,000 .. 2,000,000
Followers: 1,077
Peak concurrent players yesterday: 155
Playtime in the last 2 weeks: 00:01 (average) 00:01 (median)
Playtime total: 06:12 (average) 00:36 (median)

Steam Spy is still in beta, so expect major bugs.

Owners data:

Access restricted.

This feature is only available to users with special access rights. Sorry.

If you want to proceed, you need to register or log in first and then back Steam Spy on Patreon. Look for Indie or Pro pledge.

Don't forget to use the same email as on Steam Spy!

Audience in 2 weeks:

Access restricted.

This feature is only available to users with special access rights. Sorry.

If you want to proceed, you need to register or log in first and then back Steam Spy on Patreon. Look for Indie or Pro pledge.

Don't forget to use the same email as on Steam Spy!

Peak daily concurrent players:

CCU data courtesy of SteamDB. Used with permission.

Hourly concurrent players:

Daily Twitch stats:

Hourly Twitch stats:

YouTube:

The views data is based on top 50 videos uploaded last week. Actual number of views might be more than the number shown.

The displayed number of videos uploaded yesterday is limited to 50, so if there were more videos uploaded, the number will still show 50.

If the game has commonly used word as its name (like "FEAR" or "Volume") its number of Youtube views might be wrong.

Games similar to this one:

# Game Release date
Price
Score rank
(Userscore / Metascore)
Owners
Players
Playtime (Median)
1 Little Big Adventure 2 Oct 20, 2015 $3.9999% (98%)20,000 .. 50,0000%00:00 (00:00)
2 Seven Kingdoms: Ancient Adversaries Mar 22, 2016 $2.39N/A (N/A)20,000 .. 50,0000%00:00 (00:00)
3 Voodoo Vince: Remastered Apr 17, 2017 $14.9997% (97%/63%)0 .. 20,0000%00:00 (00:00)
4 Dungeon Warfare Nov 4, 2015 $9.9997% (97%)20,000 .. 50,0003.9%01:18 (01:12)
5 Militia Dec 2, 2015 $5.9995% (96%)0 .. 20,0000%00:00 (00:00)
6 Defend The Highlands Nov 6, 2015 $9.9995% (96%)100,000 .. 200,0000.44%00:31 (00:20)
7 Imperium Galactica Jan 19, 2017 $4.99N/A (N/A)0 .. 20,0000%00:00 (00:00)
8 Supercharged Robot VULKAISER Jun 4, 2015 $4.9993% (95%)20,000 .. 50,0000%00:00 (00:00)
9 Hegemony Gold: Wars of Ancient Greece Mar 30, 2012 $14.9993% (95%)20,000 .. 50,0000%00:00 (00:00)
10 Flywrench Aug 24, 2015 $6.9993% (95%)0 .. 20,0000%00:00 (00:00)
11 Chicken Invaders 2 Mar 4, 2016 $3.9993% (95%)0 .. 20,0002.94%06:07 (02:02)
12 Templar Battleforce Sep 21, 2015 $9.9993% (95%)20,000 .. 50,0000%00:00 (00:00)
13 PixelJunk Shooter Nov 11, 2013 $8.9990% (94%/73%)100,000 .. 200,0000.27%04:06 (01:22)
14 Adventure in the Tower of Flight Dec 23, 2015 $4.9990% (94%)0 .. 20,0000%00:00 (00:00)
15 Gold Rush! Classic Dec 23, 1988 $2.9990% (94%)200,000 .. 500,0000.12%02:03 (00:41)
16 Audio Arena Jul 25, 2016 $6.99N/A (N/A)0 .. 20,0000%00:00 (00:00)
17 Star Trek: Judgment Rites May 8, 2015 $9.99N/A (N/A)0 .. 20,0000%00:00 (00:00)
18 ESCHATOS Sep 18, 2015 $14.9990% (94%)0 .. 20,0000%00:00 (00:00)
19 Majesty Gold HD Mar 23, 2001 $9.9990% (94%)100,000 .. 200,0000%00:00 (00:00)
20 Stick it to The Man! Dec 13, 2013 $7.9990% (94%/83%)20,000 .. 50,0000%00:00 (00:00)
21 Neon Chrome Apr 28, 2016 $14.9990% (94%/74%)200,000 .. 500,0000%00:00 (00:00)
22 Outcast 1.1 Dec 18, 2014 $5.9990% (94%)20,000 .. 50,0001.23%00:01 (00:00)
23 Eufloria HD Oct 14, 2014 $14.9987% (93%)200,000 .. 500,0000.33%01:28 (00:29)
24 Kick Ass Commandos Nov 17, 2016 $9.9987% (93%)20,000 .. 50,0001.41%02:01 (00:40)
25 Kalimba Apr 22, 2015 $9.9987% (93%/81%)0 .. 20,0000%00:00 (00:00)
26 Anarcute Jul 12, 2016 $14.9987% (93%/79%)0 .. 20,0000%00:00 (00:00)
27 Pharaoh Rebirth+ Mar 17, 2016 $9.9987% (93%)0 .. 20,0000%00:00 (00:00)
28 Super Trench Attack! Jul 24, 2014 $0.4987% (93%)50,000 .. 100,0000%00:00 (00:00)
29 Major Mayhem Feb 24, 2014 $4.9987% (93%)20,000 .. 50,0000%00:00 (00:00)
30 Handsome Mr. Frog Aug 8, 2016 $0.9987% (93%)0 .. 20,0000%00:00 (00:00)
31 Run or Die Dec 11, 2014 $4.9987% (93%)0 .. 20,0000%00:00 (00:00)
32 Bleed Jul 3, 2013 $4.9987% (93%)100,000 .. 200,0000%00:00 (00:00)
33 Darknet Jun 8, 2017 $14.99N/A (N/A)0 .. 20,0000%00:00 (00:00)
34 Great Big War Game Aug 28, 2012 $6.99N/A (N/A)0 .. 20,0000%00:00 (00:00)
35 Shmups Skill Test シューティング技能検定 Jun 9, 2016 $4.99N/A (N/A)0 .. 20,0000%00:00 (00:00)
36 Miracle Fly Oct 26, 2015 $7.9984% (92%)20,000 .. 50,0000%00:00 (00:00)
37 Tallowmere Mar 3, 2015 $3.9984% (92%)20,000 .. 50,0003.64%00:21 (00:07)
38 Counter Spell Oct 5, 2015 $9.9984% (92%)0 .. 20,0000%00:00 (00:00)
39 Ys VI: The Ark of Napishtim Apr 28, 2015 $19.9984% (92%/76%)50,000 .. 100,0000%00:00 (00:00)
40 Wars and Warriors: Joan of Arc Feb 7, 2004 $1.7484% (92%/60%)0 .. 20,0000%00:00 (00:00)
41 Weird Hero Nov 18, 2016 $1.5984% (92%)0 .. 20,0000%00:00 (00:00)
42 Death Ray Manta SE Sep 17, 2015 $1.9984% (92%)20,000 .. 50,0000%00:00 (00:00)
43 Ittle Dew Jul 23, 2013 $9.9984% (92%/67%)100,000 .. 200,0000%00:00 (00:00)
44 Knightmare Tower Jun 16, 2014 $3.9984% (92%)0 .. 20,0000%00:00 (00:00)
45 Apocalypse: Party's Over May 30, 2016 $4.9980% (91%)0 .. 20,0000%00:00 (00:00)
46 Angry Video Game Nerd II: ASSimilation Mar 29, 2016 $9.9980% (91%)20,000 .. 50,0000%00:00 (00:00)
47 Clash of Puppets Dec 16, 2014 $4.9980% (91%)0 .. 20,0000%00:00 (00:00)
48 Skulls of the Shogun Jul 29, 2013 $9.9980% (91%/72%)100,000 .. 200,0000.54%03:23 (01:32)
49 Warrior Kings: Battles Sep 30, 2003 $9.9980% (91%/64%)0 .. 20,0000%00:00 (00:00)
50 Below Kryll Sep 7, 2015 $4.9980% (91%)0 .. 20,0000%00:00 (00:00)
51 Kohan II: Kings of War Sep 21, 2004 $9.9980% (91%/81%)20,000 .. 50,0000%00:00 (00:00)
52 Dandy: Or a Brief Glimpse Into the Life of the Candy Alchemist Aug 4, 2015 $9.99N/A (N/A)0 .. 20,0000%00:00 (00:00)
53 Blue Estate The Game Apr 8, 2015 $12.9980% (91%/59%)50,000 .. 100,0000%00:00 (00:00)
54 Near Death Aug 2, 2016 $14.9980% (91%/70%)20,000 .. 50,0004%00:35 (00:11)
55 Valley Aug 24, 2016 $19.9980% (91%)100,000 .. 200,0001.61%02:40 (03:01)
56 Mad Bullets Jun 10, 2016 $2.9980% (91%)0 .. 20,0001.79%00:31 (00:10)
57 The Juicer Sep 6, 2012 $0.9980% (91%)20,000 .. 50,0002.3%03:08 (01:56)
58 Momodora III Jul 1, 2014 $1.9980% (91%)50,000 .. 100,0000%00:00 (00:00)
59 Battle Academy 2: Eastern Front Sep 12, 2014 $39.9980% (91%/78%)0 .. 20,0000%00:00 (00:00)
60 Super Cyborg Jul 8, 2015 $4.9980% (91%)20,000 .. 50,0000.7%00:34 (00:11)
61 Headlander Jul 25, 2016 $19.9977% (90%/74%)50,000 .. 100,0000%00:00 (00:00)
62 Earth Defense Force: Insect Armageddon Dec 14, 2011 $9.9977% (90%/69%)50,000 .. 100,0000.84%00:01 (00:00)
63 Amaranthine Apr 6, 2016 $2.9977% (90%)0 .. 20,0000%00:00 (00:00)
64 Planet of the Eyes Aug 24, 2015 $9.9977% (90%/66%)50,000 .. 100,0000%00:00 (00:00)
65 Kohan: Ahriman's Gift Nov 6, 2001 $9.99N/A (N/A/79%)0 .. 20,0000%00:00 (00:00)
66 Superstatic Sep 15, 2015 $4.99N/A (N/A)0 .. 20,0000%00:00 (00:00)
67 Ace of Seafood Apr 8, 2016 $5.9977% (90%)0 .. 20,0000%00:00 (00:00)
68 Sneaky Sneaky Nov 12, 2014 $4.9977% (90%/63%)0 .. 20,0000%00:00 (00:00)
69 Codename: Panzers, Phase Two Feb 18, 2016 $3.7477% (90%/80%)0 .. 20,0000%00:00 (00:00)
70 RIVE: Wreck, Hack, Die, Retry! Sep 13, 2016 $14.9977% (90%)200,000 .. 500,0000%00:00 (00:00)
71 Warhammer 40,000: Dawn of War – Winter Assault Jan 1, 2006 $12.9977% (90%)500,000 .. 1,000,0000.13%00:01 (00:00)
72 Khet 2.0 Oct 1, 2014 $9.9977% (90%)50,000 .. 100,0002.27%02:57 (00:59)
73 MoonBase Commander Aug 13, 2002 $5.9977% (90%/77%)0 .. 20,0002.7%01:36 (00:32)
74 Wild Guns Reloaded Jul 11, 2017 $19.9977% (90%)0 .. 20,00018.18%00:08 (00:03)
75 Swords and Soldiers HD Dec 2, 2010 $9.9977% (90%)100,000 .. 200,0000.07%00:01 (00:00)
76 Zombo Buster Rising Oct 2, 2016 $1.9974% (89%)0 .. 20,0001.28%36:30 (12:10)
77 Death's Hangover Jan 20, 2017 $4.9974% (89%)20,000 .. 50,0001.64%00:40 (00:26)
78 Armed with Wings: Rearmed Jun 1, 2017 $8.4974% (89%)20,000 .. 50,0000%00:00 (00:00)
79 Lethe - Episode One Aug 1, 2016 $14.9974% (89%)0 .. 20,0001.41%00:37 (00:12)
80 Reverse Crawl Sep 24, 2015 $5.9974% (89%)20,000 .. 50,0000%00:00 (00:00)
81 System Crash Aug 1, 2016 $14.9974% (89%)0 .. 20,0000%00:00 (00:00)
82 Spider: Rite of the Shrouded Moon Aug 6, 2015 $9.9974% (89%)20,000 .. 50,0000%00:00 (00:00)
83 Silent Storm Gold Edition Sep 9, 2004 $9.9974% (89%/83%)100,000 .. 200,0000%00:00 (00:00)
84 CastleStorm Jul 29, 2013 $9.9974% (89%/73%)100,000 .. 200,0000.4%00:01 (00:00)
85 Viking Squad Oct 4, 2016 $14.9971% (88%)0 .. 20,0000%00:00 (00:00)
86 Earn to Die 2 May 5, 2016 $4.9971% (88%)20,000 .. 50,0000%00:00 (00:00)
87 Tcheco in the Castle of Lucio Jun 22, 2015 $0.9971% (88%)50,000 .. 100,0000%00:00 (00:00)
88 Lethal VR Nov 8, 2016 $14.9971% (88%/66%)0 .. 20,0000%00:00 (00:00)
89 Anodyne Mar 22, 2013 $9.9971% (88%/75%)100,000 .. 200,0000%00:00 (00:00)
90 Battlepillars Gold Edition Apr 28, 2014 $4.9971% (88%)20,000 .. 50,0000%00:00 (00:00)
91 The Fall May 30, 2014 $9.9971% (88%/76%)200,000 .. 500,0000.51%00:20 (00:13)
92 Mr. Shifty Apr 13, 2017 $14.9971% (88%)50,000 .. 100,0000.43%01:59 (01:00)
93 Avoid - Sensory Overload Apr 8, 2014 $4.9971% (88%)0 .. 20,0000%00:00 (00:00)
94 Greed Corp Dec 10, 2010 $9.9971% (88%/76%)200,000 .. 500,0000%00:00 (00:00)
95 Fort Meow Jun 25, 2015 $7.9971% (88%)0 .. 20,0000%00:00 (00:00)
96 TRON 2.0 Aug 22, 2003 $9.9971% (88%/84%)20,000 .. 50,0000%00:00 (00:00)
97 Atom Zombie Smasher Mar 14, 2011 $9.9971% (88%/75%)200,000 .. 500,0000%00:00 (00:00)
98 Explosionade Sep 23, 2015 $3.99N/A (N/A)0 .. 20,0001%02:03 (00:41)
99 Super Chibi Knight Jun 24, 2015 $2.4968% (87%)20,000 .. 50,0001.52%01:15 (00:25)
100 Syrian Warfare Feb 21, 2017 $14.9968% (87%)50,000 .. 100,0000%00:00 (00:00)
101 Time Rifters Oct 21, 2014 $9.9968% (87%)0 .. 20,0000%00:00 (00:00)
102 Sang-Froid - Tales of Werewolves Apr 5, 2013 Free68% (87%/79%)200,000 .. 500,0000.16%00:01 (00:00)
103 The Tiny Tale 2 Jan 30, 2015 $6.99N/A (N/A)0 .. 20,0000%00:00 (00:00)
104 Spooky Cats Jun 4, 2015 $2.9968% (87%)20,000 .. 50,0000%00:00 (00:00)
105 Shadow Blade: Reload Aug 10, 2015 $14.9968% (87%/70%)20,000 .. 50,0001.59%00:12 (00:07)
106 Blacksea Odyssey Jun 1, 2016 $9.9968% (87%/74%)20,000 .. 50,0000%00:00 (00:00)
107 Supreme Commander Feb 20, 2007 $12.9968% (87%/86%)500,000 .. 1,000,0000.13%03:42 (01:14)
108 The Way May 20, 2016 $14.9968% (87%/67%)50,000 .. 100,0002.33%01:08 (01:05)
109 Graviteam Tactics: Mius-Front Mar 4, 2016 $34.9968% (87%)0 .. 20,0000%00:00 (00:00)
110 Spectromancer Oct 15, 2008 $9.9968% (87%)20,000 .. 50,0000%00:00 (00:00)
111 NOBUNAGA'S AMBITION: Souzou (Traditional Chinese version) Aug 2014 $24.9965% (86%)20,000 .. 50,0004.76%00:01 (00:00)
112 Command: Northern Inferno Oct 22, 2015 $19.99N/A (N/A)0 .. 20,0000%00:00 (00:00)
113 Ballistic Tanks Sep 20, 2016 $0.4965% (86%)0 .. 20,0007.14%00:01 (00:00)
114 Meltdown Jun 5, 2014 $6.9965% (86%)50,000 .. 100,0000%00:00 (00:00)
115 Steel Rain Dec 3, 2015 $9.9965% (86%)0 .. 20,0000%00:00 (00:00)
116 Rush for Berlin Gold Oct 29, 2009 $4.9965% (86%/76%)20,000 .. 50,0000%00:00 (00:00)
117 Star Ruler Sep 20, 2010 $9.9965% (86%)100,000 .. 200,0000.49%00:21 (00:07)
118 Bullet Sorrow VR Apr 17, 2017 $19.9965% (86%)0 .. 20,0000%00:00 (00:00)
119 Executive Assault Jul 17, 2015 $12.9965% (86%)20,000 .. 50,0000%00:00 (00:00)
120 Age of Wonders Shadow Magic Oct 2010 $9.9965% (86%/82%)100,000 .. 200,0000%00:00 (00:00)
121 Slash or Die Jun 3, 2016 $2.9965% (86%)20,000 .. 50,0000%00:00 (00:00)
122 Arcane Sorcery Sep 15, 2015 $4.99N/A (N/A)0 .. 20,0001.69%02:37 (00:52)
123 The Haunted: Hells Reach Oct 24, 2011 $8.9965% (86%/51%)50,000 .. 100,0000%00:00 (00:00)
124 N2O: Nitrous Oxide Jun 29, 2015 $4.99N/A (N/A)0 .. 20,0000%00:00 (00:00)
125 Dustoff Heli Rescue Mar 6, 2015 $3.9963% (85%)20,000 .. 50,0000.88%00:02 (00:00)
126 Interloper May 21, 2015 Free63% (85%/77%)50,000 .. 100,0000.53%00:09 (00:06)
127 ShootMania Storm Apr 10, 2013 $19.9963% (85%/76%)50,000 .. 100,0000%00:00 (00:00)
128 Ghost Master Aug 23, 2003 $4.9963% (85%/81%)100,000 .. 200,0000%00:00 (00:00)
129 Gurgamoth Feb 16, 2016 $4.9963% (85%)50,000 .. 100,0000%00:00 (00:00)
130 VelocityUltra Dec 12, 2013 $9.9963% (85%)50,000 .. 100,0000%00:00 (00:00)
131 ENSLAVED: Odyssey to the West Premium Edition Oct 24, 2013 $19.9963% (85%/70%)200,000 .. 500,0000.49%00:44 (00:41)
132 Last Knight: Rogue Rider Edition Oct 3, 2014 $7.9963% (85%)20,000 .. 50,0001.01%02:01 (00:40)
133 Magnifico Dec 2, 2014 $4.9963% (85%)50,000 .. 100,0000%00:00 (00:00)
134 The Men of Yoshiwara: Kikuya Oct 15, 2015 $29.9960% (84%)0 .. 20,0000%00:00 (00:00)
135 Delta Force 2 Oct 31, 1999 $4.9960% (84%)20,000 .. 50,0000%00:00 (00:00)
136 Demons with Shotguns Apr 25, 2016 $9.99N/A (N/A)0 .. 20,0000%00:00 (00:00)
137 Foresight Nov 28, 2014 $4.99N/A (N/A)0 .. 20,0001.94%05:47 (01:55)
138 Neon Shadow Aug 25, 2016 $4.9960% (84%)0 .. 20,0000%00:00 (00:00)
139 Battle Group 2 Jun 13, 2014 $7.9960% (84%)50,000 .. 100,0000%00:00 (00:00)
140 Rooks Keep Dec 5, 2014 $7.9960% (84%)20,000 .. 50,0000%00:00 (00:00)
141 Western 1849 Reloaded Feb 10, 2017 $4.99N/A (N/A)0 .. 20,0000%00:00 (00:00)
142 Super Furball May 13, 2014 $3.99N/A (N/A)0 .. 20,0000%00:00 (00:00)
143 Sudden Strike 2 Gold May 22, 2017 $5.9960% (84%)20,000 .. 50,0002.78%10:03 (03:21)
144 Legend (1994) Apr 1, 1994 $2.49N/A (N/A)0 .. 20,0000%00:00 (00:00)
145 Act of War: Direct Action Mar 14, 2005 $2.9960% (84%/82%)20,000 .. 50,0000%00:00 (00:00)
146 CRYPTARK Jun 20, 2017 $14.9960% (84%/80%)50,000 .. 100,0001.9%00:15 (00:10)
147 Fat Chicken Dec 4, 2014 $9.99N/A (N/A)0 .. 20,0000%00:00 (00:00)
148 She Wants Me Dead May 13, 2016 $7.9958% (83%)0 .. 20,0000%00:00 (00:00)
149 Ace of Protectors Jun 27, 2016 $1.9958% (83%)20,000 .. 50,0002.41%20:10 (12:09)
150 Orbital Gear Aug 7, 2014 $9.9958% (83%/59%)200,000 .. 500,0000.18%00:01 (00:00)
151 TY the Tasmanian Tiger 4 Sep 17, 2015 $5.9958% (83%)20,000 .. 50,0000%00:00 (00:00)
152 Crush Your Enemies Jul 13, 2016 $9.9958% (83%/63%)20,000 .. 50,0002.38%00:24 (00:08)
153 Eador: Genesis Aug 7, 2009 $5.9958% (83%)50,000 .. 100,0000%00:00 (00:00)
154 NOBUNAGA'S AMBITION: Sphere of Influence Sep 1, 2015 $59.9958% (83%/70%)20,000 .. 50,0000%00:00 (00:00)
155 After The End: The Harvest Jun 2, 2017 $4.99N/A (N/A)20,000 .. 50,0001.19%02:37 (00:52)
156 GIBZ Apr 7, 2017 $7.9958% (83%)0 .. 20,0007.69%03:22 (02:14)
157 Advanced Tactics Gold Apr 12, 2011 $29.9958% (83%)0 .. 20,0000%00:00 (00:00)
158 Weapon of Choice Sep 23, 2015 $4.99N/A (N/A)0 .. 20,0001.22%05:18 (01:46)
159 Square Brawl Oct 22, 2015 $4.9955% (82%)0 .. 20,0000%00:00 (00:00)
160 Conflict Desert Storm Sep 13, 2002 $6.9955% (82%/56%)20,000 .. 50,0000%00:00 (00:00)
161 Galaxy Admirals Jan 17, 2017 $1.9955% (82%)50,000 .. 100,0000%00:00 (00:00)
162 Blade Arcus from Shining: Battle Arena Jul 28, 2016 $29.9955% (82%)0 .. 20,0007.14%00:06 (00:02)
163 Rack N Ruin Sep 1, 2015 $9.9955% (82%)0 .. 20,0000%00:00 (00:00)
164 PixelJunk Shooter Ultimate Oct 21, 2015 $9.9955% (82%)20,000 .. 50,0000%00:00 (00:00)
165 Shadow Ops: Red Mercury Sep 17, 2004 $6.9955% (82%/61%)20,000 .. 50,0000%00:00 (00:00)
166 Bulletstorm: Full Clip Edition Apr 7, 2017 $39.9955% (82%/76%)50,000 .. 100,0001.41%01:16 (00:31)
167 Concealed Intent Aug 2, 2016 $14.99N/A (N/A)0 .. 20,0000%00:00 (00:00)
168 In Verbis Virtus Apr 3, 2015 $19.9953% (81%)50,000 .. 100,0000%00:00 (00:00)
169 Toadled Sep 22, 2016 $0.9953% (81%)50,000 .. 100,0001.2%04:08 (05:20)
170 rymdkapsel Jan 30, 2014 $7.9953% (81%/77%)0 .. 20,0000%00:00 (00:00)
171 Anomaly 2 May 15, 2013 $14.9953% (81%/77%)200,000 .. 500,0000.18%00:03 (00:01)
172 Tiki Man Jun 4, 2015 $0.9953% (81%)20,000 .. 50,0000.63%02:01 (00:40)
173 htoL#NiQ: The Firefly Diary / htoL#NiQ-ホタルノニッキ- May 18, 2016 $9.9953% (81%)20,000 .. 50,0003.03%00:29 (00:09)
174 Jim Power -The Lost Dimension Dec 10, 1993 $2.49N/A (N/A)0 .. 20,0000%00:00 (00:00)
175 Fate of the World Feb 28, 2011 $9.9951% (80%/70%)50,000 .. 100,0000%00:00 (00:00)
176 Gun Metal Sep 23, 2003 $2.9951% (80%)200,000 .. 500,0000%00:00 (00:00)
177 David. Mar 14, 2014 $1.9951% (80%)50,000 .. 100,0000.45%02:46 (00:55)
178 Fantasy Wars Aug 6, 2010 $4.9951% (80%/67%)50,000 .. 100,0000%00:00 (00:00)
179 Conquest of Elysium 3 Oct 24, 2012 $9.9951% (80%)20,000 .. 50,0000%00:00 (00:00)
180 7,62 High Calibre Aug 24, 2007 $4.9951% (80%)20,000 .. 50,0000%00:00 (00:00)
181 ROD: Revolt Of Defense Aug 12, 2016 $0.9951% (80%)20,000 .. 50,0000%00:00 (00:00)
182 Hail to the King: Deathbat Oct 30, 2014 $5.9951% (80%)0 .. 20,0000%00:00 (00:00)
183 Trigger Runners Mar 3, 2016 $1.9951% (80%)0 .. 20,0000%00:00 (00:00)
184 Enemy Mind Jun 6, 2014 $9.9951% (80%)200,000 .. 500,0000%00:00 (00:00)
185 Supreme Ruler 2020 Gold Jun 17, 2008 $9.9951% (80%/65%)50,000 .. 100,0000%00:00 (00:00)
186 Envoy Mar 17, 2016 $4.9951% (80%)50,000 .. 100,0000.38%00:04 (00:01)
187 Zeno Clash 2 Apr 30, 2013 $14.9951% (80%)200,000 .. 500,0000.51%02:33 (02:07)
188 Monday Night Combat Jan 24, 2011 $4.9951% (80%/82%)200,000 .. 500,0000%00:00 (00:00)
189 Disciples Sacred Lands Gold Oct 4, 1999 $7.9951% (80%)20,000 .. 50,0000%00:00 (00:00)
190 Klang Sep 22, 2016 $14.9951% (80%/71%)0 .. 20,0000%00:00 (00:00)
191 Child Of Ault Jan 24, 2017 $9.99N/A (N/A)0 .. 20,0000%00:00 (00:00)
192 Bloodsports.TV Mar 30, 2015 $9.9951% (80%/69%)50,000 .. 100,0003.08%02:54 (03:18)
193 Junk Jack Nov 30, 2016 $14.9951% (80%)0 .. 20,0000%00:00 (00:00)
194 Interplanetary May 12, 2015 N/A51% (80%)100,000 .. 200,0000.72%04:48 (02:58)
195 Legends of Callasia Jun 10, 2016 Free51% (80%)50,000 .. 100,0000%00:00 (00:00)
196 Locoland Nov 22, 2003 $4.9951% (80%)0 .. 20,0000%00:00 (00:00)
197 Run Rabbit Run Mar 31, 2016 $3.9951% (80%)0 .. 20,0000%00:00 (00:00)
198 Perimeter May 21, 2004 $3.9951% (80%/77%)20,000 .. 50,0000%00:00 (00:00)
199 Star Wolves 3: Civil War Mar 2, 2010 $4.9951% (80%)100,000 .. 200,0000%00:00 (00:00)
200 Graviteam Tactics: Operation Star Mar 22, 2012 $29.9951% (80%)20,000 .. 50,0000%00:00 (00:00)
201 Defense Zone Jul 14, 2014 $2.99N/A (N/A)0 .. 20,0000%00:00 (00:00)
202 The Legend of Dark Witch Dec 1, 2015 $4.9949% (79%)20,000 .. 50,0000.98%00:19 (00:06)
203 Fortified Feb 3, 2016 $14.9949% (79%)500,000 .. 1,000,0001.01%03:18 (03:23)
204 TASTEE: Lethal Tactics May 10, 2016 $1.4949% (79%)20,000 .. 50,0002.63%01:29 (00:59)
205 Dominions 3: The Awakening Sep 10, 2013 $19.9949% (79%/82%)0 .. 20,0000%00:00 (00:00)
206 Ninjahtic Jul 6, 2015 $1.9949% (79%)0 .. 20,0000%00:00 (00:00)
207 Tank Destroyer Mar 9, 2017 $0.549% (79%)20,000 .. 50,0000%00:00 (00:00)
208 TRON RUN/r Feb 16, 2016 $19.9949% (79%)0 .. 20,0000%00:00 (00:00)
209 Making History: The Calm & the Storm Mar 13, 2007 $4.9949% (79%/70%)50,000 .. 100,0000%00:00 (00:00)
210 Demolition Inc. Sep 19, 2011 $5.9949% (79%)50,000 .. 100,0000%00:00 (00:00)
211 Defense Zone 3 Ultra HD Dec 14, 2016 $2.9949% (79%)0 .. 20,0000%00:00 (00:00)
212 Nuclear Dawn Sep 26, 2011 $9.9949% (79%/71%)200,000 .. 500,0000.36%01:23 (00:40)
213 Age of Gladiators Feb 25, 2016 $9.9949% (79%)20,000 .. 50,0000%00:00 (00:00)
214 Bet On Soldier Sep 26, 2005 $7.9949% (79%)20,000 .. 50,0000%00:00 (00:00)
215 Pharaonic Apr 28, 2016 $14.9949% (79%)0 .. 20,0000%00:00 (00:00)
216 Cultures - 8th Wonder of the World Mar 26, 2015 $4.9949% (79%)50,000 .. 100,0000.59%00:01 (00:00)
217 Gatling Gears Aug 30, 2011 $9.9949% (79%)20,000 .. 50,0000%00:00 (00:00)
218 Vietnam ‘65 Mar 5, 2015 $9.9949% (79%/81%)20,000 .. 50,0000%00:00 (00:00)
219 Ironcast Mar 26, 2015 $14.9949% (79%/75%)20,000 .. 50,0000%00:00 (00:00)
220 Caster Mar 19, 2009 $1.9949% (79%)200,000 .. 500,0000.15%04:02 (01:20)
221 Fleet Command May 15, 1999 $9.9949% (79%)50,000 .. 100,0000%00:00 (00:00)
222 Protoshift Jan 15, 2016 $0.9949% (79%)0 .. 20,0000%00:00 (00:00)
223 Umihara Kawase Shun: Steam Edition Nov 24, 2015 $11.99N/A (N/A)0 .. 20,0000%00:00 (00:00)
224 Advent Rising Aug 9, 2005 $9.9949% (79%/70%)50,000 .. 100,0000%00:00 (00:00)
225 Velocity 2X Aug 19, 2015 $19.9947% (78%)50,000 .. 100,0000%00:00 (00:00)
226 Aeon Command Jul 3, 2014 $2.9947% (78%)20,000 .. 50,0000%00:00 (00:00)
227 Heroes of Might & Magic V: Hammers of Fate Nov 14, 2006 $9.9947% (78%/66%)200,000 .. 500,0000%00:00 (00:00)
228 Age of Wonders Oct 2010 $5.9947% (78%)100,000 .. 200,0000%00:00 (00:00)
229 PAC-MAN and the Ghostly Adventures Oct 29, 2013 $19.9947% (78%)0 .. 20,0000%00:00 (00:00)
230 Afghanistan '11 Mar 23, 2017 $29.9947% (78%)0 .. 20,0000%00:00 (00:00)
231 Blue Effect VR Feb 8, 2017 $14.9947% (78%)0 .. 20,0000%00:00 (00:00)
232 Strike Suit Zero: Director's Cut Apr 8, 2014 $19.9947% (78%)20,000 .. 50,0000%00:00 (00:00)
233 Mold on Pizza Sep 25, 2015 $5.9947% (78%)0 .. 20,0000%00:00 (00:00)
234 Deadly 30 Jan 8, 2014 $4.9947% (78%)100,000 .. 200,0000.59%00:46 (00:30)
235 Zombie Party Jun 10, 2016 $9.9947% (78%)100,000 .. 200,0000%00:00 (00:00)
236 Dead Rising 2: Off the Record Oct 11, 2011 $19.9947% (78%/66%)200,000 .. 500,0001.06%00:49 (01:34)
237 Zombie Killtime Aug 4, 2015 $1.99N/A (N/A)0 .. 20,0000%00:00 (00:00)
238 King of Dragon Pass Jul 28, 2015 $11.9945% (77%)20,000 .. 50,0000.66%02:51 (00:57)
239 Starchaser: Priestess of the Night Sky Jul 24, 2015 $3.29N/A (N/A)0 .. 20,0000%00:00 (00:00)
240 The Political Machine 2016 Feb 4, 2016 $9.9945% (77%)20,000 .. 50,0001.23%00:29 (00:19)
241 Sky Gamblers: Storm Raiders Jan 7, 2015 $9.9945% (77%)0 .. 20,0000%00:00 (00:00)
242 Making History II: The War of the World Jun 22, 2010 $14.9945% (77%/38%)20,000 .. 50,0000%00:00 (00:00)
243 McDROID Sep 5, 2014 $9.9945% (77%)0 .. 20,0000%00:00 (00:00)
244 Warlords Battlecry III Jan 22, 2016 $9.9945% (77%/73%)20,000 .. 50,00010%00:44 (00:14)
245 Battlezone Gold Edition May 11, 2017 $34.9945% (77%)0 .. 20,0000%00:00 (00:00)
246 Rocket Knight May 11, 2010 $14.9945% (77%/63%)0 .. 20,0003.13%00:15 (00:05)
247 Dangerous Waters Feb 7, 2006 $14.9945% (77%/82%)50,000 .. 100,0000%00:00 (00:00)
248 A Blind Legend Apr 7, 2016 $6.9945% (77%)0 .. 20,0000%00:00 (00:00)
249 Starscape Mar 27, 2003 $7.9945% (77%)0 .. 20,0000%00:00 (00:00)
250 Auralux: Constellations Jun 1, 2016 $9.9945% (77%)0 .. 20,0000%00:00 (00:00)
251 Warhammer 40,000: Armageddon Nov 26, 2014 $39.9945% (77%/68%)20,000 .. 50,0000%00:00 (00:00)
252 Anomaly Warzone Earth Mobile Campaign Nov 6, 2013 $4.9945% (77%)100,000 .. 200,0000%00:00 (00:00)
253 Curse of the Crescent Isle DX Aug 21, 2015 $4.9945% (77%)0 .. 20,0000%00:00 (00:00)
254 BloodRayne Sep 9, 2003 $9.9943% (76%/65%)50,000 .. 100,0000%00:00 (00:00)
255 Cashtronauts Sep 1, 2016 $2.9943% (76%)0 .. 20,0000%00:00 (00:00)
256 Z Jul 4, 2014 $6.9943% (76%)100,000 .. 200,0000.97%01:39 (01:50)
257 Chaser Aug 22, 2003 $4.9943% (76%/66%)50,000 .. 100,0000%00:00 (00:00)
258 A.R.E.S. Extinction Agenda EX Oct 3, 2014 $9.9943% (76%)0 .. 20,0001.96%00:32 (00:10)
259 Painkiller Hell & Damnation Oct 31, 2012 $19.9943% (76%/64%)500,000 .. 1,000,0000.62%01:22 (01:45)
260 Mysterium: A Psychic Clue Game Jan 12, 2017 $6.9943% (76%)50,000 .. 100,0001%01:15 (01:03)
261 Deadlings: Rotten Edition Nov 11, 2014 $3.9943% (76%)50,000 .. 100,0000.61%00:04 (00:01)
262 Olympia Rising Jul 23, 2015 $4.9943% (76%)0 .. 20,0000%00:00 (00:00)
263 Star Realms Mar 8, 2016 Free43% (76%)100,000 .. 200,0000%00:00 (00:00)
264 Extravaganza Rising Jul 21, 2016 N/AN/A (N/A)20,000 .. 50,0000%00:00 (00:00)
265 Corgi Warlock Dec 3, 2015 $1.9943% (76%)20,000 .. 50,0000%00:00 (00:00)
266 Victory At Sea Aug 8, 2014 $24.9941% (75%)20,000 .. 50,0000%00:00 (00:00)
267 Battle Mages: Sign of Darkness Apr 13, 2006 $4.9941% (75%)0 .. 20,0000%00:00 (00:00)
268 Fist Puncher Jun 21, 2013 $9.9941% (75%/73%)20,000 .. 50,0000%00:00 (00:00)
269 Monster Monpiece Mar 14, 2017 $19.9941% (75%)0 .. 20,0000%00:00 (00:00)
270 Disney Planes Aug 6, 2013 $19.99N/A (N/A)0 .. 20,0000%00:00 (00:00)
271 Rocketbirds 2 Evolution Jan 26, 2017 $9.9941% (75%)20,000 .. 50,0000%00:00 (00:00)
272 CivCity: Rome Jul 24, 2006 $9.9941% (75%/67%)50,000 .. 100,0000%00:00 (00:00)
273 BossConstructor Oct 24, 2016 $14.9941% (75%)0 .. 20,0000%00:00 (00:00)
274 Hunting Unlimited 2008 Sep 1, 2007 $9.99N/A (N/A)20,000 .. 50,0000%00:00 (00:00)
275 Livelock Aug 30, 2016 $9.9941% (75%/73%)20,000 .. 50,0000%00:00 (00:00)
276 Star Hammer: The Vanguard Prophecy Jun 4, 2015 $19.9941% (75%/69%)0 .. 20,0000%00:00 (00:00)
277 Spirits of Xanadu Mar 26, 2015 $4.9941% (75%)20,000 .. 50,0000%00:00 (00:00)
278 Platformines Mar 28, 2014 $9.9941% (75%/67%)100,000 .. 200,0000.47%01:22 (00:27)
279 Vector Strain Dec 9, 2015 $4.9941% (75%)20,000 .. 50,0001.39%00:01 (00:00)
280 Bubsy Two-Fur Dec 17, 2015 $4.9941% (75%)20,000 .. 50,0000%00:00 (00:00)
281 Albino Lullaby: Episode 1 Sep 15, 2015 $9.9941% (75%)20,000 .. 50,0000%00:00 (00:00)
282 Heaven Forest NIGHTS Mar 14, 2017 $0.99N/A (N/A)100,000 .. 200,0000.18%02:24 (00:48)
283 Perimeter: Emperor's Testament Aug 29, 2006 $3.99N/A (N/A/72%)20,000 .. 50,0000%00:00 (00:00)
284 Riddled Corpses Jun 2, 2015 $7.9941% (75%)20,000 .. 50,0002.11%01:05 (00:43)
285 Civil War II Sep 17, 2013 $39.9941% (75%)0 .. 20,0000%00:00 (00:00)
286 WARSHIFT Oct 12, 2016 $12.9941% (75%)20,000 .. 50,0000%00:00 (00:00)
287 Making History: The Great War Jan 29, 2015 $29.9939% (74%)20,000 .. 50,0000%00:00 (00:00)
288 Smell Of Death Jul 4, 2016 $9.9939% (74%)0 .. 20,0000%00:00 (00:00)
289 Onechanbara Z2: Chaos Jun 2, 2016 $19.9939% (74%)0 .. 20,0000%00:00 (00:00)
290 Sid Meier’s Ace Patrol Aug 27, 2013 $4.9939% (74%)500,000 .. 1,000,0000%00:00 (00:00)
291 Distant Worlds: Universe May 23, 2014 $59.9939% (74%/81%)50,000 .. 100,0000%00:00 (00:00)
292 Ubersoldier II Jul 22, 2008 $9.9939% (74%/62%)20,000 .. 50,0000%00:00 (00:00)
293 Commander: The Great War Nov 12, 2012 $29.9939% (74%)0 .. 20,0000%00:00 (00:00)
294 Battle Time Sep 29, 2016 $0.9939% (74%)50,000 .. 100,0000%00:00 (00:00)
295 TableTop Soccer Apr 22, 2016 $0.9939% (74%)0 .. 20,0000%00:00 (00:00)
296 Master Reboot Oct 29, 2013 $14.9939% (74%/59%)50,000 .. 100,0001.92%04:03 (01:42)
297 Smithy Jun 3, 2016 $3.99N/A (N/A)50,000 .. 100,0000%00:00 (00:00)
298 FIVE: Champions of Canaan Sep 27, 2016 $3.9937% (73%)0 .. 20,0000%00:00 (00:00)
299 Death by Game Show Jan 22, 2016 $9.9937% (73%)20,000 .. 50,0000%00:00 (00:00)
300 Viktor Jun 13, 2014 $7.9937% (73%)20,000 .. 50,0001.49%00:14 (00:04)
301 FEIST Jul 23, 2015 $9.9937% (73%/65%)20,000 .. 50,0001.85%03:28 (01:09)
302 Phoning Home Feb 7, 2017 $19.9937% (73%/61%)20,000 .. 50,0000%00:00 (00:00)
303 Divinity: Dragon Commander Aug 6, 2013 $3.9937% (73%)200,000 .. 500,0000%00:00 (00:00)
304 AirMech Command Mar 8, 2017 $19.9937% (73%)0 .. 20,0000%00:00 (00:00)
305 Gold Rush! Anniversary Nov 7, 2014 $5.9937% (73%)100,000 .. 200,0000%00:00 (00:00)
306 Rex Rocket Aug 5, 2014 $4.9937% (73%)20,000 .. 50,0000%00:00 (00:00)
307 Hot Tin Roof: The Cat That Wore A Fedora Feb 20, 2015 $14.9937% (73%/66%)100,000 .. 200,0000%00:00 (00:00)
308 The Aquatic Adventure of the Last Human Jan 19, 2016 $9.9937% (73%/76%)0 .. 20,0000%00:00 (00:00)
309 Vampire of the Sands Jul 17, 2015 $4.9937% (73%)20,000 .. 50,0001%01:35 (00:31)
310 Codex of Victory Mar 16, 2017 $14.9937% (73%)0 .. 20,0000%00:00 (00:00)
311 Battle Fleet 2 Nov 20, 2014 $14.9937% (73%)20,000 .. 50,0000%00:00 (00:00)
312 Retrovirus Jan 31, 2013 $9.9937% (73%/70%)20,000 .. 50,0000%00:00 (00:00)
313 Alarameth TD Jun 23, 2015 $4.99N/A (N/A)0 .. 20,0000%00:00 (00:00)
314 Deadnaut Nov 27, 2014 $9.9936% (72%)0 .. 20,0000%00:00 (00:00)
315 Heroes of Arca Feb 16, 2017 Free36% (72%)0 .. 20,0000%00:00 (00:00)
316 Revolution Under Siege Gold Jul 2, 2015 $24.9936% (72%)0 .. 20,0000%00:00 (00:00)
317 Supreme Ruler Ultimate Oct 17, 2014 $19.9936% (72%)20,000 .. 50,00013.04%17:35 (07:12)
318 Pick a Hero Jun 9, 2016 $0.99N/A (N/A)0 .. 20,0000%00:00 (00:00)
319 Pike and Shot : Campaigns Aug 13, 2015 $39.9936% (72%)0 .. 20,0000%00:00 (00:00)
320 King Arthur - The Role-playing Wargame Nov 24, 2009 $9.9936% (72%)200,000 .. 500,0000.56%00:08 (00:02)
321 Wyv and Keep: The Temple of the Lost Idol Aug 8, 2014 $14.9936% (72%)20,000 .. 50,0000%00:00 (00:00)
322 Pongo May 14, 2015 $0.9936% (72%)50,000 .. 100,0000%00:00 (00:00)
323 Rise & Shine Jan 13, 2017 $14.9936% (72%)20,000 .. 50,0000%00:00 (00:00)
324 Elven Legacy Apr 7, 2009 $4.9936% (72%/71%)50,000 .. 100,0000%00:00 (00:00)
325 Airship Dragoon Aug 26, 2014 $19.99N/A (N/A)0 .. 20,0000%00:00 (00:00)
326 Lost Planet: Extreme Condition Jun 26, 2007 $14.9936% (72%/66%)200,000 .. 500,0000.48%00:09 (00:03)
327 Auro: A Monster-Bumping Adventure Apr 13, 2016 $6.9936% (72%)0 .. 20,0000%00:00 (00:00)
328 Cast of the Seven Godsends - Redux Jul 20, 2015 $9.9936% (72%)20,000 .. 50,0000%00:00 (00:00)
329 Civil War: Battle of Petersburg Feb 8, 2017 $0.99N/A (N/A)0 .. 20,0000.83%00:03 (00:01)
330 VRZ: Torment May 18, 2017 $9.9936% (72%)0 .. 20,0000%00:00 (00:00)
331 LEGO Indiana Jones 2: The Adventure Continues Feb 18, 2010 $19.9936% (72%/66%)50,000 .. 100,0001.72%00:01 (00:00)
332 Fatal Fight Jun 10, 2016 $2.9936% (72%)0 .. 20,0000%00:00 (00:00)
333 Cuban Missile Crisis May 6, 2005 $4.9936% (72%)20,000 .. 50,0000%00:00 (00:00)
334 REDCON Apr 22, 2016 $5.9934% (71%)0 .. 20,0003.57%02:48 (00:56)
335 Elliot Quest Nov 10, 2014 $9.9934% (71%)20,000 .. 50,0000%00:00 (00:00)
336 A.R.E.S.: Extinction Agenda Jan 20, 2011 $4.9934% (71%/68%)100,000 .. 200,0000%00:00 (00:00)
337 Banzai Escape Feb 29, 2016 $5.9934% (71%)0 .. 20,0000%00:00 (00:00)
338 rooMaze Mar 3, 2017 $1.9934% (71%)100,000 .. 200,0000.41%04:57 (01:39)
339 Sengoku Jidai: Shadow of the Shogun May 19, 2016 $29.9934% (71%/85%)0 .. 20,0000%00:00 (00:00)
340 Panzer Tactics HD May 22, 2014 $9.9934% (71%/69%)20,000 .. 50,0000%00:00 (00:00)
341 There Came an Echo Feb 24, 2015 $14.9934% (71%/58%)20,000 .. 50,0000%00:00 (00:00)
342 Warp Mar 21, 2012 $9.9934% (71%)20,000 .. 50,0000%00:00 (00:00)
343 Cross of the Dutchman Sep 10, 2015 $8.9934% (71%/59%)20,000 .. 50,0000%00:00 (00:00)
344 The Last Federation Apr 18, 2014 $19.9934% (71%/72%)50,000 .. 100,0000%00:00 (00:00)
345 Zoo Empire Aug 1, 2004 $6.99N/A (N/A/59%)0 .. 20,0000%00:00 (00:00)
346 Tom Clancy's EndWar Feb 25, 2009 $9.9934% (71%/68%)50,000 .. 100,0001.43%00:31 (00:10)
347 Othello Aug 5, 2016 $9.9932% (70%)0 .. 20,0000%00:00 (00:00)
348 Lux Delux May 1, 2015 $9.9932% (70%)20,000 .. 50,0001.23%00:01 (00:00)
349 Pigmentone Jul 8, 2016 $1.99N/A (N/A)0 .. 20,0003.64%02:00 (01:19)
350 Space Colony: Steam Edition Apr 30, 2015 $14.9932% (70%/74%)20,000 .. 50,0001.15%00:02 (00:00)
351 BitMaster Oct 12, 2016 $2.9932% (70%)100,000 .. 200,0000.42%04:41 (03:09)
352 Brigade E5: New Jagged Union Oct 17, 2006 $3.9932% (70%/41%)0 .. 20,0000%00:00 (00:00)
353 Little King's Story Aug 5, 2016 $19.9931% (69%/62%)0 .. 20,0000%00:00 (00:00)
354 Collapse Sep 25, 2008 $19.9931% (69%)20,000 .. 50,0001.03%01:49 (00:36)
355 The Superfluous May 19, 2017 $4.99N/A (N/A)0 .. 20,0000%00:00 (00:00)
356 Guns n Zombies Oct 30, 2014 $7.9931% (69%)100,000 .. 200,0000%00:00 (00:00)
357 8-Bit Commando Jul 27, 2011 $2.9931% (69%)50,000 .. 100,0000%00:00 (00:00)
358 Sol 0: Mars Colonization Jan 15, 2016 $3.9931% (69%)20,000 .. 50,0000%00:00 (00:00)
359 Spud's Quest Jul 31, 2014 $7.99N/A (N/A)0 .. 20,0000%00:00 (00:00)
360 The Nightmare Cooperative Jul 16, 2014 $4.9931% (69%)50,000 .. 100,0000%00:00 (00:00)
361 Incandescent Jun 30, 2015 $0.4931% (69%)20,000 .. 50,0000%00:00 (00:00)
362 Jagged Alliance 2 - Wildfire Mar 8, 2004 $6.9931% (69%)200,000 .. 500,0001.36%05:31 (06:32)
363 Alea Jacta Est Sep 27, 2012 $24.9929% (68%)0 .. 20,0000%00:00 (00:00)
364 The Living Dungeon Nov 2, 2015 $9.9929% (68%)0 .. 20,0000%00:00 (00:00)
365 YAIBA: NINJA GAIDEN Z Mar 21, 2014 $29.9929% (68%/49%)20,000 .. 50,0000%00:00 (00:00)
366 FIVE: Guardians of David Nov 24, 2015 $9.9929% (68%/66%)20,000 .. 50,0000%00:00 (00:00)
367 ManaCollect Apr 17, 2015 $6.9929% (68%)0 .. 20,0000%00:00 (00:00)
368 Scourge of War: Waterloo Nov 19, 2015 $49.9929% (68%)0 .. 20,0000%00:00 (00:00)
369 Warrior Kings Apr 13, 2002 $9.9929% (68%/73%)0 .. 20,0000%00:00 (00:00)
370 Strategy & Tactics: Wargame Collection Apr 22, 2016 $9.9929% (68%)20,000 .. 50,0000%00:00 (00:00)
371 Survivor Squad: Gauntlets Nov 16, 2015 $4.9929% (68%)20,000 .. 50,0000%00:00 (00:00)
372 Bedlam Oct 13, 2015 $12.9929% (68%/54%)100,000 .. 200,0000.6%01:03 (00:41)
373 The Hive Aug 25, 2016 $9.9929% (68%)0 .. 20,0000%00:00 (00:00)
374 Royal Defense Nov 6, 2014 $4.9929% (68%)50,000 .. 100,0000.36%106:32 (35:30)
375 Nomad Fleet Jul 14, 2015 $9.9928% (67%)0 .. 20,0003.57%02:54 (00:58)
376 Zafehouse: Diaries Sep 6, 2013 $1.9928% (67%)50,000 .. 100,0000%00:00 (00:00)
377 Infinity Runner Jul 14, 2014 $6.9928% (67%/56%)0 .. 20,0000%00:00 (00:00)
378 Zombie City Defense 2 Aug 19, 2016 $9.9928% (67%)0 .. 20,0005.56%00:50 (00:16)
379 Toy Odyssey: The Lost and Found Sep 20, 2016 $14.9928% (67%/66%)20,000 .. 50,0000.41%02:17 (00:45)
380 RISK: Factions Mar 8, 2011 $9.9928% (67%/77%)50,000 .. 100,0001.61%22:03 (07:21)
381 Space Food Truck Mar 25, 2016 $9.9928% (67%)20,000 .. 50,0000%00:00 (00:00)
382 Stonerid Dec 18, 2013 $4.9928% (67%)50,000 .. 100,0000.62%02:01 (00:40)
383 Chainsaw Warrior Oct 7, 2013 $4.9928% (67%)100,000 .. 200,0000%00:00 (00:00)
384 1849 May 8, 2014 $14.9928% (67%)20,000 .. 50,0000%00:00 (00:00)
385 Sengoku Sep 15, 2011 $9.9928% (67%/70%)100,000 .. 200,0000%00:00 (00:00)
386 Kill The Plumber Dec 31, 2015 $4.9928% (67%)0 .. 20,0000%00:00 (00:00)
387 March of the Eagles Feb 18, 2013 $19.9928% (67%/71%)50,000 .. 100,0000%00:00 (00:00)
388 Toren May 11, 2015 $9.9928% (67%/57%)50,000 .. 100,0000%00:00 (00:00)
389 Theatre of War 2: Africa 1943 Apr 24, 2009 $4.9926% (66%/63%)100,000 .. 200,0000%00:00 (00:00)
390 Sky To Fly: Faster Than Wind Mar 25, 2016 $3.9926% (66%)0 .. 20,0000%00:00 (00:00)
391 Zombie Camp Jul 31, 2016 $1.99N/A (N/A)0 .. 20,0000%00:00 (00:00)
392 Urban Pirate Jun 17, 2016 $6.99N/A (N/A)0 .. 20,0000%00:00 (00:00)
393 Assassin’s Creed Chronicles: India Jan 12, 2016 $9.9926% (66%)50,000 .. 100,0000%00:00 (00:00)
394 1775: Rebellion Sep 29, 2016 $24.99N/A (N/A)0 .. 20,0001.64%04:59 (01:39)
395 Scourge: Outbreak Apr 2, 2014 $7.9926% (66%)100,000 .. 200,0000%00:00 (00:00)
396 Fair Strike Feb 5, 2004 $3.99N/A (N/A/56%)0 .. 20,0000%00:00 (00:00)
397 Commander Cool 2 Dec 17, 2015 $2.9926% (66%)20,000 .. 50,0001.04%01:12 (00:24)
398 Mad Combat Marines Jul 13, 2016 $0.9926% (66%)20,000 .. 50,0000.95%01:31 (00:30)
399 Marauder Sep 10, 2009 $9.9925% (65%)20,000 .. 50,0000%00:00 (00:00)
400 Theatre of War 2: Kursk 1943 Mar 9, 2010 $4.9925% (65%)50,000 .. 100,0000%00:00 (00:00)
401 Zombie Tycoon 2: Brainhov's Revenge Dec 9, 2013 $4.9925% (65%)50,000 .. 100,0000.98%04:34 (01:31)
402 Devil's Dare 悪魔の挑戦 Oct 21, 2014 $12.9925% (65%)20,000 .. 50,0000%00:00 (00:00)
403 Men of War: Condemned Heroes Apr 12, 2012 $7.9925% (65%/57%)100,000 .. 200,0000%00:00 (00:00)
404 Disney Pirates of the Caribbean: At Worlds End May 22, 2007 $19.9925% (65%)0 .. 20,0000%00:00 (00:00)
405 Ground Breakers Jun 15, 2016 $4.99N/A (N/A)0 .. 20,0000%00:00 (00:00)
406 7th Legion Jan 1, 1997 $6.9925% (65%)0 .. 20,0000%00:00 (00:00)
407 Kaiju-A-GoGo Apr 23, 2015 $9.9925% (65%)20,000 .. 50,0000%00:00 (00:00)
408 Frozen Synapse Prime Nov 14, 2014 $24.9924% (64%/83%)50,000 .. 100,0000.36%01:17 (00:25)
409 SPACECOM Sep 17, 2014 $9.9924% (64%/68%)100,000 .. 200,0000%00:00 (00:00)
410 Hunters Of The Dead Sep 4, 2014 $4.9924% (64%)20,000 .. 50,0001.39%01:30 (00:30)
411 Quick Slick Deadly Sep 21, 2015 $0.4924% (64%)20,000 .. 50,0000%00:00 (00:00)
412 The Seven Years War (1756-1763) Oct 30, 2015 $19.9924% (64%)0 .. 20,0000%00:00 (00:00)
413 Beasts Battle Jun 15, 2016 $1.9924% (64%)0 .. 20,0000%00:00 (00:00)
414 Jagged Alliance: Crossfire Aug 24, 2012 $14.9924% (64%/63%)100,000 .. 200,0000%00:00 (00:00)
415 Warlock 2: The Exiled Apr 10, 2014 $19.9924% (64%/73%)50,000 .. 100,0001.16%00:38 (00:12)
416 Revenge of Roger Rouge Apr 22, 2016 $0.99N/A (N/A)20,000 .. 50,0000%00:00 (00:00)
417 Zoo Rampage Jul 9, 2014 $3.9924% (64%)0 .. 20,0000%00:00 (00:00)
418 GEARGUNS Tank offensive Sep 20, 2016 $7.9924% (64%)20,000 .. 50,0000%00:00 (00:00)
419 A Game of Dwarves Oct 23, 2012 $9.9924% (64%/60%)50,000 .. 100,0000%00:00 (00:00)
420 Link Apr 22, 2016 $4.99N/A (N/A)0 .. 20,0003.33%01:36 (00:32)
421 Port Royale 2 Apr 30, 2004 $4.9922% (63%/75%)50,000 .. 100,0000%00:00 (00:00)
422 Double Dragon IV Jan 30, 2017 $6.9922% (63%/50%)0 .. 20,0000%00:00 (00:00)
423 Malebolgia May 6, 2015 $12.9922% (63%)0 .. 20,0000%00:00 (00:00)
424 Platypus II Mar 17, 2007 $0.6922% (63%)200,000 .. 500,0000.26%01:08 (00:45)
425 Overruled! Sep 15, 2015 $12.9922% (63%)20,000 .. 50,0000%00:00 (00:00)
426 Sorcerer King: Rivals Sep 22, 2016 $14.9922% (63%)20,000 .. 50,0000%00:00 (00:00)
427 Pixel Boy and the Ever Expanding Dungeon May 30, 2014 $0.9922% (63%)20,000 .. 50,0000%00:00 (00:00)
428 Battle Worlds: Kronos Nov 4, 2013 $19.9922% (63%/71%)20,000 .. 50,0000%00:00 (00:00)
429 Will Fight for Food: Super Actual Sellout: Game of the Hour Apr 22, 2015 $5.9922% (63%)0 .. 20,0000%00:00 (00:00)
430 Rise: Battle Lines Nov 17, 2015 $1.9921% (62%)0 .. 20,0000%00:00 (00:00)
431 Spirit of War Mar 12, 2015 $9.9921% (62%)20,000 .. 50,0000%00:00 (00:00)
432 War, the Game Jan 12, 2015 $6.9921% (62%/65%)20,000 .. 50,0000%00:00 (00:00)
433 Goblin Defenders: Steel‘n’ Wood Aug 21, 2013 $2.9921% (62%)20,000 .. 50,0000.95%01:28 (00:29)
434 UnSummoning: the Spectral Horde Dec 21, 2015 FreeN/A (N/A)0 .. 20,0000%00:00 (00:00)
435 Desert Ashes Nov 10, 2014 $4.9921% (62%)20,000 .. 50,0000%00:00 (00:00)
436 Bombshell Jan 29, 2016 $34.9921% (62%)0 .. 20,0000%00:00 (00:00)
437 The Few Jun 18, 2014 $7.9921% (62%)20,000 .. 50,0000.87%00:14 (00:04)
438 Hyperspace Pinball Sep 30, 2015 $2.99N/A (N/A)0 .. 20,0000%00:00 (00:00)
439 To End All Wars Aug 29, 2014 $39.9921% (62%/71%)0 .. 20,0000%00:00 (00:00)
440 My Super Tower 2 Jan 27, 2017 $0.99N/A (N/A)0 .. 20,0000%00:00 (00:00)
441 4089: Ghost Within Jan 9, 2015 $1.7920% (61%)0 .. 20,0000%00:00 (00:00)
442 Disciples III - Renaissance Steam Special Edition Jul 16, 2010 $14.9920% (61%/56%)100,000 .. 200,0000%00:00 (00:00)
443 Men of War: Vietnam Sep 8, 2011 $7.9920% (61%/68%)100,000 .. 200,0000.56%01:10 (00:23)
444 Spice Road Apr 24, 2014 $2.9920% (61%)0 .. 20,0000%00:00 (00:00)
445 Legions of Steel Jul 16, 2015 $19.99N/A (N/A/64%)0 .. 20,0000%00:00 (00:00)
446 BattleLore: Command Nov 25, 2014 $6.9920% (61%)0 .. 20,0000%00:00 (00:00)
447 Gnumz: Masters of Defense Dec 21, 2015 $4.9920% (61%)20,000 .. 50,0000%00:00 (00:00)
448 Call of Duty: Black Ops - Mac Edition Sep 27, 2012 $19.9920% (61%)50,000 .. 100,0000%00:00 (00:00)
449 Supreme Ruler: Cold War Jul 29, 2011 $9.9920% (61%/63%)20,000 .. 50,0000%00:00 (00:00)
450 Disney Epic Mickey 2: The Power of Two Nov 18, 2012 $19.9920% (61%)0 .. 20,0003.7%00:08 (00:02)
451 Freight Tycoon Inc. Aug 15, 2007 $4.9920% (61%)20,000 .. 50,0001.89%00:01 (00:00)
452 Flashback Oct 1, 2013 $9.9920% (61%)20,000 .. 50,0000%00:00 (00:00)
453 Merchants of Kaidan Nov 10, 2014 $14.9919% (60%)100,000 .. 200,0000.42%03:54 (02:36)
454 Purgatory Jun 22, 2016 $0.4919% (60%)200,000 .. 500,0000.19%02:24 (01:12)
455 Defend Your Crypt Jul 21, 2016 $2.99N/A (N/A)0 .. 20,0000%00:00 (00:00)
456 NOBUNAGA'S AMBITION: Sphere of Influence - Ascension / 信長の野望・創造 戦国立志伝 Mar 23, 2016 $59.9919% (60%)100,000 .. 200,00018.75%20:30 (13:49)
457 Hybrid Wars Sep 29, 2016 $6.9919% (60%/54%)0 .. 20,0000%00:00 (00:00)
458 Skyshine's BEDLAM Sep 16, 2015 $19.9919% (60%/67%)20,000 .. 50,0000%00:00 (00:00)
459 Eclipse: New Dawn for the Galaxy Sep 16, 2016 N/A19% (60%)0 .. 20,0000%00:00 (00:00)
460 Close Combat - Panthers in the Fog Nov 19, 2012 $39.9919% (60%)0 .. 20,0000%00:00 (00:00)
461 Woolfe - The Red Hood Diaries Mar 17, 2015 $9.9919% (60%/55%)50,000 .. 100,0000.78%00:01 (00:00)
462 Patrician IV - Steam Special Edition Sep 17, 2010 $14.9918% (59%/66%)100,000 .. 200,0000%00:00 (00:00)
463 Antisquad Oct 31, 2014 $5.9918% (59%)50,000 .. 100,0000%00:00 (00:00)
464 Prospekt Feb 18, 2016 $9.9918% (59%)20,000 .. 50,0000%00:00 (00:00)
465 Battleplan: American Civil War Jul 4, 2014 $9.9918% (59%/66%)100,000 .. 200,0000.35%01:02 (00:41)
466 Armada 2526 Gold Edition Feb 28, 2013 $19.9918% (59%/66%)20,000 .. 50,0000%00:00 (00:00)
467 7 Grand Steps: What Ancients Begat Jun 7, 2013 $19.9918% (59%)100,000 .. 200,0000%00:00 (00:00)
468 Code of Princess Apr 14, 2016 $14.9918% (59%/53%)0 .. 20,0000%00:00 (00:00)
469 E.T. Armies Mar 3, 2016 $14.9918% (59%/54%)0 .. 20,0000%00:00 (00:00)
470 Heavy Fire: Afghanistan Aug 15, 2014 $2.9918% (59%)20,000 .. 50,0001.09%01:31 (00:30)
471 Quarantine May 24, 2017 $9.9918% (59%)0 .. 20,0000%00:00 (00:00)
472 Ninjahtic Mind Tricks Jul 16, 2015 $1.99N/A (N/A)0 .. 20,0000%00:00 (00:00)
473 Wanderlust Adventures Aug 10, 2015 $9.9918% (59%)20,000 .. 50,0000%00:00 (00:00)
474 Cemetery Warrior 3 Feb 3, 2017 $0.9917% (58%)50,000 .. 100,0000%00:00 (00:00)
475 Check vs Mate Aug 16, 2012 $19.9917% (58%/69%)0 .. 20,0000%00:00 (00:00)
476 Gates of Horizon Dec 18, 2014 $9.9917% (58%)0 .. 20,0000%00:00 (00:00)
477 Ceres Oct 16, 2015 $19.9917% (58%/74%)0 .. 20,0000%00:00 (00:00)
478 Woodle Tree 2: Worlds Sep 16, 2016 $3.9917% (58%)50,000 .. 100,0000%00:00 (00:00)
479 Colonial Conquest Jul 28, 2015 $9.9917% (58%)0 .. 20,0000%00:00 (00:00)
480 Life in Bunker Feb 25, 2016 $15.9917% (58%)0 .. 20,0000%00:00 (00:00)
481 Sir! I'd Like To Report A Bug! Oct 19, 2015 $1.99N/A (N/A)0 .. 20,0000%00:00 (00:00)
482 Unearthed: Trail of Ibn Battuta - Episode 1 - Gold Edition Jan 3, 2014 $4.9917% (58%)20,000 .. 50,0000%00:00 (00:00)
483 Prophour23 Oct 22, 2014 $9.9917% (58%)0 .. 20,0000%00:00 (00:00)
484 Assault on Arnhem Mar 11, 2016 $9.99N/A (N/A)0 .. 20,0000%00:00 (00:00)
485 DreamBreak Jul 21, 2016 $6.9916% (57%/46%)20,000 .. 50,0002.5%00:16 (00:05)
486 Crazy Forest Jul 6, 2016 $4.9916% (57%)100,000 .. 200,0000%00:00 (00:00)
487 Abalone Apr 23, 2014 $6.9915% (56%)20,000 .. 50,0002.17%07:24 (02:28)
488 Story Of the Survivor Feb 16, 2016 $4.99N/A (N/A)50,000 .. 100,0000%00:00 (00:00)
489 Rise of Venice Sep 27, 2013 $19.9915% (56%/66%)50,000 .. 100,0000%00:00 (00:00)
490 Horizon Feb 6, 2014 $7.4915% (56%/58%)50,000 .. 100,0001.16%02:01 (00:40)
491 Stay Dead Evolution Feb 4, 2015 $5.9915% (56%)20,000 .. 50,0001.04%02:03 (00:41)
492 VR Journey Dec 15, 2016 $0.5N/A (N/A)20,000 .. 50,0000%00:00 (00:00)
493 Delve Deeper Sep 24, 2010 $4.9915% (56%)50,000 .. 100,0000%00:00 (00:00)
494 Super Helmets on Fire DX Ultra Edition Plus Alpha Feb 15, 2016 $0.99N/A (N/A)0 .. 20,0000%00:00 (00:00)
495 reconquest Dec 16, 2016 $11.9914% (55%)0 .. 20,0000%00:00 (00:00)
496 Pain Train Jan 11, 2017 $0.9914% (55%)50,000 .. 100,0002.34%02:42 (04:04)
497 Dawn of Andromeda May 4, 2017 $29.9914% (55%/70%)0 .. 20,0000%00:00 (00:00)
498 Adventure World Aug 2, 2016 $4.99N/A (N/A)0 .. 20,0000%00:00 (00:00)
499 Wickland Nov 14, 2014 $0.9913% (54%)50,000 .. 100,0000%00:00 (00:00)
500 Crusaders: Thy Kingdom Come Oct 8, 2009 $9.99N/A (N/A)20,000 .. 50,0000%00:00 (00:00)
501 Urja Jan 9, 2015 $9.9913% (54%)20,000 .. 50,0000%00:00 (00:00)
502 BC Kings Sep 15, 2008 $4.9913% (54%)20,000 .. 50,0000%00:00 (00:00)
503 Castle Werewolf 3D Feb 7, 2017 $2.99N/A (N/A)50,000 .. 100,0002.24%04:13 (04:33)
504 RESCUE 2: Everyday Heroes Jun 3, 2015 $19.9913% (54%)20,000 .. 50,0000%00:00 (00:00)
505 Sovereignty: Crown of Kings Feb 2, 2017 $24.9913% (53%)0 .. 20,0000%00:00 (00:00)
506 MDK2 HD Jul 30, 2012 $14.9913% (53%/73%)0 .. 20,0000%00:00 (00:00)
507 Armada 2526 Jun 10, 2010 $14.99N/A (N/A/66%)0 .. 20,0000%00:00 (00:00)
508 Smugglers 5 Apr 11, 2014 $9.9913% (53%)20,000 .. 50,0000%00:00 (00:00)
509 MinosMaze - The Minotaur's Labyrinth May 1, 2017 $4.99N/A (N/A)0 .. 20,0000%00:00 (00:00)
510 Royal Bounty HD Aug 10, 2015 $2.9912% (52%)0 .. 20,0000%00:00 (00:00)
511 The Stalin Subway Oct 5, 2006 $3.9912% (52%)0 .. 20,0000%00:00 (00:00)
512 Grim Seventh Jan 20, 2017 FreeN/A (N/A)0 .. 20,0000%00:00 (00:00)
513 Meridian: New World Apr 4, 2014 $6.9912% (52%/43%)50,000 .. 100,0000%00:00 (00:00)
514 Tic-Toc-Tower Sep 28, 2015 $2.9912% (52%)0 .. 20,0000%00:00 (00:00)
515 Weather Lord: The Successor's Path Apr 8, 2015 $0.99N/A (N/A)0 .. 20,0000%00:00 (00:00)
516 Biodrone Battle Jul 16, 2015 $1.9911% (51%)100,000 .. 200,0000%00:00 (00:00)
517 Dusty Revenge:Co-Op Edition Feb 17, 2014 $14.9911% (51%)50,000 .. 100,0000.42%00:02 (00:00)
518 Nightside Apr 2, 2015 $4.9911% (51%)20,000 .. 50,0000%00:00 (00:00)
519 Meridian: Squad 22 Aug 11, 2016 $14.9911% (51%)0 .. 20,0000%00:00 (00:00)
520 Aggression: Europe Under Fire May 10, 2007 $9.9911% (50%)0 .. 20,0000%00:00 (00:00)
521 Guncraft Aug 9, 2013 $14.9911% (50%/73%)100,000 .. 200,0000%00:00 (00:00)
522 No Pineapple Left Behind Feb 18, 2016 $6.99N/A (N/A/59%)0 .. 20,0000%00:00 (00:00)
523 Defence to death May 11, 2017 $1.99N/A (N/A)50,000 .. 100,0000.24%00:04 (00:01)
524 Albedo: Eyes from Outer Space Apr 10, 2015 $14.9911% (50%/66%)50,000 .. 100,0000%00:00 (00:00)
525 Scapeland Mar 31, 2016 $3.9911% (50%)0 .. 20,0000%00:00 (00:00)
526 Kidnapped Aug 4, 2015 $2.9910% (49%)100,000 .. 200,0000.25%01:30 (00:30)
527 Star Traders: 4X Empires Nov 18, 2014 $9.9910% (48%)0 .. 20,0000%00:00 (00:00)
528 Marvel: Ultimate Alliance 2 Jul 26, 2016 N/A10% (48%)0 .. 20,0000%00:00 (00:00)
529 Synonymy Dec 12, 2014 $1.9910% (48%)0 .. 20,0000%00:00 (00:00)
530 PeriAreion Feb 19, 2015 $5.99N/A (N/A)0 .. 20,0000%00:00 (00:00)
531 Rubber and Lead Sep 4, 2015 $4.9910% (48%)20,000 .. 50,0000%00:00 (00:00)
532 Z Steel Soldiers Aug 1, 2014 $1.299% (47%)50,000 .. 100,0000.35%02:13 (00:44)
533 ALONE IN SPACE Feb 22, 2016 $9.999% (47%)0 .. 20,0000%00:00 (00:00)
534 Hell Nov 13, 2014 $29.99N/A (N/A)0 .. 20,0000%00:00 (00:00)
535 Aegis Oct 6, 2016 $2.99N/A (N/A)0 .. 20,0000%00:00 (00:00)
536 Odd||Even Apr 6, 2016 $0.999% (47%)20,000 .. 50,0000.59%02:31 (00:50)
537 Crossfire: Dungeons Jan 15, 2007 $3.999% (47%)0 .. 20,0000%00:00 (00:00)
538 Disposable Heroes Oct 1, 2015 $4.999% (47%)20,000 .. 50,0000%00:00 (00:00)
539 Hero Generations Apr 10, 2015 $5.999% (47%)0 .. 20,0000%00:00 (00:00)
540 Chronostorm: Siberian Border Apr 2, 2009 $0.99N/A (N/A)0 .. 20,0000%00:00 (00:00)
541 Blasting Agent: Ultimate Edition Aug 17, 2016 $2.99N/A (N/A)0 .. 20,0000%00:00 (00:00)
542 Magic Quest May 6, 2016 $1.99N/A (N/A)50,000 .. 100,0000.29%02:31 (00:50)
543 HitBox Jan 30, 2017 Free9% (46%)0 .. 20,0000%00:00 (00:00)
544 The Stalin Subway: Red Veil Oct 5, 2006 $2.999% (46%)20,000 .. 50,0000%00:00 (00:00)
545 Carrier Command: Gaea Mission Sep 28, 2012 $32.999% (46%/60%)200,000 .. 500,0000%00:00 (00:00)
546 Megamagic: Wizards of the Neon Age Apr 20, 2016 $9.999% (46%/67%)20,000 .. 50,0000%00:00 (00:00)
547 The Campaign Series: Fall Weiss May 30, 2014 $14.998% (45%)20,000 .. 50,0000%00:00 (00:00)
548 Impire Feb 14, 2013 $19.998% (45%/45%)100,000 .. 200,0000%00:00 (00:00)
549 World War 2: Time of Wrath Jun 15, 2009 $4.998% (45%)20,000 .. 50,0000%00:00 (00:00)
550 Pride of Nations Jun 8, 2011 $19.998% (45%/70%)20,000 .. 50,0000%00:00 (00:00)
551 Commander: Conquest of the Americas Jul 30, 2010 $9.998% (45%/68%)50,000 .. 100,0000%00:00 (00:00)
552 The Bluecoats: North vs South May 10, 2012 $4.998% (44%)20,000 .. 50,0000%00:00 (00:00)
553 Skyward Collapse May 23, 2013 $4.998% (44%/64%)100,000 .. 200,0000%00:00 (00:00)
554 Island Defense Jul 23, 2015 $1.998% (44%)50,000 .. 100,0000.28%02:21 (00:47)
555 Redemption: Saints And Sinners Nov 18, 2016 $0.998% (44%)50,000 .. 100,0000%00:00 (00:00)
556 Nux Dec 26, 2006 $6.997% (43%)200,000 .. 500,0000.4%01:24 (00:36)
557 Dungeons Feb 10, 2011 $9.997% (43%/65%)200,000 .. 500,0000%00:00 (00:00)
558 Avaris 2: The Return of the Empress Dec 14, 2015 $7.99N/A (N/A)0 .. 20,0000%00:00 (00:00)
559 The Entente Gold Aug 11, 2003 $1.997% (43%)20,000 .. 50,0000%00:00 (00:00)
560 Vendetta - Curse of Raven's Cry Nov 20, 2015 $29.997% (43%)0 .. 20,0004.76%01:37 (00:59)
561 Samudai Feb 9, 2015 $2.997% (42%)20,000 .. 50,0000%00:00 (00:00)
562 Sword of the Stars II: Enhanced Edition Nov 30, 2012 $19.997% (42%/65%)100,000 .. 200,0000%00:00 (00:00)
563 Burstfire Sep 24, 2015 N/A7% (42%)50,000 .. 100,0000%00:00 (00:00)
564 Rulers of Nations Jul 16, 2014 $19.997% (42%/63%)0 .. 20,0000%00:00 (00:00)
565 Hydraulic Empire Jul 31, 2015 $7.996% (41%)0 .. 20,0000%00:00 (00:00)
566 Pain Train 2 Mar 16, 2017 $6.996% (41%)0 .. 20,0002.7%03:39 (02:26)
567 Strategic War in Europe Mar 21, 2014 $2.996% (41%)20,000 .. 50,0000%00:00 (00:00)
568 Heavy Fire: Shattered Spear Oct 23, 2015 $3.99N/A (N/A)0 .. 20,0000%00:00 (00:00)
569 The Kings' Crusade Oct 8, 2010 $9.996% (40%/71%)50,000 .. 100,0000%00:00 (00:00)
570 Mechs & Mercs: Black Talons Jan 9, 2015 $9.996% (40%)0 .. 20,0006.45%02:40 (01:46)
571 Risk Jun 10, 2013 $9.996% (39%)20,000 .. 50,0000%00:00 (00:00)
572 Dead But Alive! Southern England Oct 2, 2015 $14.996% (39%)0 .. 20,0000%00:00 (00:00)
573 Devils & Demons Oct 6, 2015 $9.996% (39%)20,000 .. 50,0000%00:00 (00:00)
574 Dark Matter Oct 17, 2013 $9.996% (39%)0 .. 20,0000%00:00 (00:00)
575 Wave of Darkness Nov 5, 2015 $29.996% (39%)0 .. 20,0000%00:00 (00:00)
576 Gratuitous Space Battles 2 Apr 16, 2015 $9.996% (39%)20,000 .. 50,0000%00:00 (00:00)
577 Dungeons - The Dark Lord Sep 27, 2011 $19.996% (39%/72%)100,000 .. 200,0000%00:00 (00:00)
578 Control Craft 2 Feb 15, 2016 $2.995% (38%)0 .. 20,0002.74%02:55 (01:56)
579 Lost in Paradise Aug 20, 2015 $2.995% (38%)20,000 .. 50,0002.08%04:58 (03:18)
580 Infection: Humanity's Last Gasp May 26, 2016 $9.99N/A (N/A)0 .. 20,0001.49%00:01 (00:00)
581 Zombie Apocalypse: Escape The Undead City Jun 17, 2016 $0.995% (37%)0 .. 20,0000%00:00 (00:00)
582 Blue Sheep Mar 31, 2016 $1.99N/A (N/A)0 .. 20,0000%00:00 (00:00)
583 Tiamat X May 29, 2015 $1.995% (37%)50,000 .. 100,0000%00:00 (00:00)
584 Stellar Impact Apr 12, 2012 $9.995% (37%/74%)50,000 .. 100,0000%00:00 (00:00)
585 Knight Adventure Oct 15, 2015 $0.99N/A (N/A)50,000 .. 100,0000%00:00 (00:00)
586 Shadows of War Sep 19, 2014 $2.994% (35%)20,000 .. 50,0000%00:00 (00:00)
587 Sim Junta Aug 18, 2015 $1.994% (35%)0 .. 20,0000%00:00 (00:00)
588 Urban Empire Jan 20, 2017 $29.994% (35%/62%)50,000 .. 100,0000%00:00 (00:00)
589 Disciples III - Resurrection Oct 11, 2011 $14.994% (34%/63%)100,000 .. 200,0000%00:00 (00:00)
590 Arma Tactics Oct 1, 2013 $8.994% (34%/47%)200,000 .. 500,0000%00:00 (00:00)
591 CTU: Counter Terrorism Unit Apr 22, 2016 $4.994% (34%)0 .. 20,0000%00:00 (00:00)
592 Into the Void Dec 4, 2015 $4.994% (34%)20,000 .. 50,0000%00:00 (00:00)
593 Fallen: A2P Protocol Aug 14, 2015 $9.994% (34%)20,000 .. 50,0000%00:00 (00:00)
594 Kick-Ass 2 Aug 15, 2014 $19.994% (33%)20,000 .. 50,0001.54%02:01 (00:40)
595 Jagged Alliance Flashback Oct 21, 2014 $19.994% (33%)20,000 .. 50,0000%00:00 (00:00)
596 Ranger of the jungle Jul 18, 2016 $3.99N/A (N/A)0 .. 20,0000%00:00 (00:00)
597 Ku: Shroud of the Morrigan Mar 17, 2014 $4.993% (32%)20,000 .. 50,0001.15%02:00 (00:40)
598 A Game of Thrones - Genesis Sep 29, 2011 $9.993% (31%)100,000 .. 200,0001.82%02:03 (01:21)
599 Zombie Zoeds May 20, 2015 $0.53% (31%)200,000 .. 500,0000%00:00 (00:00)
600 Psichodelya Aug 8, 2014 $0.993% (31%)100,000 .. 200,0000.52%01:07 (00:44)
601 Evopollution Apr 23, 2014 $4.993% (31%)0 .. 20,0000%00:00 (00:00)
602 Power of Defense Aug 4, 2010 $9.99N/A (N/A)0 .. 20,0000%00:00 (00:00)
603 Robotex Nov 18, 2014 $4.993% (30%)100,000 .. 200,0000%00:00 (00:00)
604 Ground Pounders Jul 15, 2014 $4.99N/A (N/A)0 .. 20,0000%00:00 (00:00)
605 Tank Operations: European Campaign Nov 22, 2013 $19.993% (29%)20,000 .. 50,0000%00:00 (00:00)
606 Defenders of Time Nov 4, 2014 N/AN/A (N/A/55%)0 .. 20,0000%00:00 (00:00)
607 Solar Shifter EX Sep 11, 2015 $4.992% (27%)20,000 .. 50,0000%00:00 (00:00)
608 Gridberd Sep 7, 2015 $6.992% (27%)200,000 .. 500,0000%00:00 (00:00)
609 Zombies on a Plane Mar 25, 2016 $4.992% (27%)0 .. 20,0000%00:00 (00:00)
610 Hard Truck Apocalypse: Arcade / Ex Machina: Arcade May 24, 2007 $4.992% (25%)20,000 .. 50,0000%00:00 (00:00)
611 One Star Apr 17, 2017 $2.99N/A (N/A)50,000 .. 100,0001.09%03:45 (03:47)
612 APOX Jan 20, 2011 $14.992% (23%/48%)20,000 .. 50,0000%00:00 (00:00)
613 Elite vs. Freedom May 31, 2016 $4.992% (23%)0 .. 20,0000%00:00 (00:00)
614 Lords of the Black Sun Sep 12, 2014 $29.992% (21%)20,000 .. 50,0000%00:00 (00:00)
615 The Asskickers-Steam Edition Feb 6, 2015 $9.992% (21%)0 .. 20,0002%02:06 (00:42)
616 Gemini Wars Nov 2, 2012 $14.992% (20%/53%)20,000 .. 50,0000%00:00 (00:00)
617 Star Project Aug 4, 2016 $1.991% (19%)100,000 .. 200,0004.81%04:14 (04:32)
618 Human Extinction Simulator Jan 21, 2015 $19.99N/A (N/A)0 .. 20,0000%00:00 (00:00)
619 Prison Tycoon 3: Lockdown Aug 1, 2007 $9.991% (17%)20,000 .. 50,0000%00:00 (00:00)
620 Tryst Sep 14, 2012 $14.99N/A (N/A/50%)0 .. 20,0000%00:00 (00:00)
621 Citadels Jul 25, 2013 $14.991% (13%/20%)20,000 .. 50,0000%00:00 (00:00)
622 Once Bitten, Twice Dead! Jul 17, 2015 $4.991% (13%)20,000 .. 50,0000%00:00 (00:00)
623 Magnetic By Nature Nov 10, 2014 $9.99N/A (N/A)20,000 .. 50,0001.06%01:48 (00:36)
624 Bloodbath Jun 16, 2014 $14.99N/A (N/A)0 .. 20,0000%00:00 (00:00)

Geography of active players over time, share:

Access restricted.

This feature is only available to users with special access rights. Sorry.

If you want to proceed, you need to register or log in first and then back Steam Spy on Patreon. Look for Indie or Pro pledge.

Don't forget to use the same email as on Steam Spy!

Tags over time:

Access restricted.

This feature is only available to users with special access rights. Sorry.

If you want to proceed, you need to register or log in first and then back Steam Spy on Patreon. Look for Indie or Pro pledge.

Don't forget to use the same email as on Steam Spy!

Owners of this game also own:

Access restricted.

This feature is only available to users with special access rights. Sorry.

If you want to proceed, you need to register or log in first and then back Steam Spy on Patreon. Look for Indie or Pro pledge.

Don't forget to use the same email as on Steam Spy!

Playtime distribution:

Access restricted.

This feature is only available to users with special access rights. Sorry.

If you want to proceed, you need to register or log in first and then back Steam Spy on Patreon. Look for Indie or Pro pledge.

Don't forget to use the same email as on Steam Spy!

Playtime (2 weeks):

Access restricted.

This feature is only available to users with special access rights. Sorry.

If you want to proceed, you need to register or log in first and then back Steam Spy on Patreon. Look for Indie or Pro pledge.

Don't forget to use the same email as on Steam Spy!

User reviews:

Login required.

Please register or log in to see this information.